Startpagina
METAR-TAF:

METAR-TAF

Vliegvelden :

Aeroporto da Madeira

Funchal, Madeira, Portugal

breedte: 32-41-52N, lengte: 016-46-28W, hoogte: 59 m

Actueel weer

Dit bericht is 15 minuten geleden gemaakt, om 18:30 UTC
Wind 10 kt uit het noordoosten
Temperatuur 24°C
Vochtigheid 65%
Druk 1021 hPa
Zicht 10 km of meer
Verspreide wolken op 1500 ft

METAR: LPMA 191830Z 04010KT 9999 SCT015 24/17 Q1021

Tijdstip: 19:45 (18:45 UTC)

Verwachting

Dit bericht is 1 uur en het 45 minuten geleden gemaakt, om 17:00 UTC
Verwachting geldig van 19 om 18 UTC tot 20 om 18 UTC
Wind 10 kt uit het noordnoordoosten
Zicht 10 km of meer
Verspreide wolken op 1500 ft
Tijdelijke
van 19 om 18 UTC tot 20 om 18 UTC
Weinig wolken op 1500 ft
Gebroken wolken op 3000 ft
Kans 30% :
Tijdelijke
van 19 om 18 UTC tot 20 om 09 UTC
Wind 5 kt uit variabele richting
Gebroken wolken op 1500 ft

TAF: LPMA 191700Z 1918/2018 03010KT 9999 SCT015 TEMPO 1918/2018 FEW015 BKN030 PROB30 TEMPO 1918/2009 VRB05KT BKN015

Waarnemingen en weersverwachtingen van meer dan 4000 vliegvelden (METAR en TAF).

De beschikbare stations zijn de gele en rode punten op de kaart.

Ga met uw muis naar het station om de naam te zien.

Klik dan om waarnemingen en weersverwachtingen te zien.

kaart wijzigen: klik op de groene knoppen met een zwart kruis om in te zoomen, op de groene knop met een streepje om uit te zoomen of op de groene pijlen voor aangrenzende kaarten.


METAR-TAF: